Time;durP1;ratioP1;P1;durP2;ratioP2;P2;SDS_P1;SDS_P2;PMS_P1;PMS_P2;Temp;Humidity;BMP_temperature;BMP_pressure;BME280_temperature;BME280_humidity;BME280_pressure;Samples;Min_cycle;Max_cycle;Signal;HPM_P1;HPM_P2
2020/12/24 00:01:39;;;;;;;21.20;20.10;;;;;;;;;;5036052;28;20522;-80
2020/12/24 00:04:06;;;;;;;21.67;20.47;;;;;;;;;;5035836;28;20577;-80
2020/12/24 00:06:32;;;;;;;22.27;20.67;;;;;;;;;;5053944;28;20490;-79
2020/12/24 00:09:00;;;;;;;21.80;20.40;;;;;;;;;;5036876;28;20448;-80
2020/12/24 00:11:27;;;;;;;21.93;20.53;;;;;;;;;;5054136;28;20405;-80
2020/12/24 00:13:55;;;;;;;21.30;20.20;;;;;;;;;;5054153;28;20534;-80
2020/12/24 00:16:22;;;;;;;20.33;19.33;;;;;;;;;;5054195;28;20494;-80
2020/12/24 00:18:49;;;;;;;22.10;20.57;;;;;;;;;;5053517;28;20429;-80
2020/12/24 00:21:16;;;;;;;22.00;20.70;;;;;;;;;;5053813;28;20416;-80
2020/12/24 00:23:43;;;;;;;22.40;20.53;;;;;;;;;;5053790;28;20468;-79
2020/12/24 00:26:10;;;;;;;21.30;19.70;;;;;;;;;;5053998;28;20769;-79
2020/12/24 00:28:37;;;;;;;20.97;19.53;;;;;;;;;;5053994;28;20493;-80
2020/12/24 00:31:04;;;;;;;20.30;19.20;;;;;;;;;;5036058;28;20428;-80
2020/12/24 00:33:31;;;;;;;20.97;19.77;;;;;;;;;;5053333;28;20461;-80
2020/12/24 00:35:58;;;;;;;20.77;19.57;;;;;;;;;;5053373;28;20491;-81
2020/12/24 00:38:25;;;;;;;21.20;19.80;;;;;;;;;;5053813;28;20796;-80
2020/12/24 00:40:53;;;;;;;20.40;19.17;;;;;;;;;;5053559;28;20442;-80
2020/12/24 00:43:21;;;;;;;21.67;19.90;;;;;;;;;;5053523;28;20450;-80
2020/12/24 00:45:48;;;;;;;21.10;19.70;;;;;;;;;;5053822;28;20420;-80
2020/12/24 00:48:15;;;;;;;22.23;20.53;;;;;;;;;;5053614;28;20446;-80
2020/12/24 00:50:42;;;;;;;21.67;20.07;;;;;;;;;;5053703;28;20413;-80
2020/12/24 00:53:09;;;;;;;20.80;19.30;;;;;;;;;;5036326;28;20434;-80
2020/12/24 00:55:36;;;;;;;20.50;19.23;;;;;;;;;;5035842;28;20488;-80
2020/12/24 00:58:03;;;;;;;21.10;19.70;;;;;;;;;;5053498;28;20431;-80
2020/12/24 01:00:31;;;;;;;21.98;20.60;;;;;;;;;;5053306;28;20949;-79
2020/12/24 01:02:58;;;;;;;20.65;19.35;;;;;;;;;;5052588;28;20203;-80
2020/12/24 01:05:24;;;;;;;21.23;19.83;;;;;;;;;;5054580;28;20631;-80
2020/12/24 01:07:51;;;;;;;20.60;19.30;;;;;;;;;;5057296;28;20833;-81
2020/12/24 01:10:19;;;;;;;21.70;19.53;;;;;;;;;;5057621;28;20441;-80
2020/12/24 01:12:46;;;;;;;21.40;19.90;;;;;;;;;;5057616;28;20440;-80
2020/12/24 01:15:12;;;;;;;21.13;19.93;;;;;;;;;;5057121;28;20471;-80
2020/12/24 01:17:40;;;;;;;21.63;20.13;;;;;;;;;;5057309;28;20442;-80
2020/12/24 01:20:08;;;;;;;22.07;20.47;;;;;;;;;;5057138;28;20458;-80
2020/12/24 01:22:35;;;;;;;20.90;19.70;;;;;;;;;;5057364;28;20469;-80
2020/12/24 01:25:02;;;;;;;20.95;19.58;;;;;;;;;;5056939;28;20431;-80
2020/12/24 01:27:29;;;;;;;20.35;19.13;;;;;;;;;;5057214;28;20195;-80
2020/12/24 01:29:56;;;;;;;21.97;20.07;;;;;;;;;;5057435;28;20202;-80
2020/12/24 01:32:23;;;;;;;20.80;19.50;;;;;;;;;;5057220;28;20818;-80
2020/12/24 01:34:51;;;;;;;21.13;19.77;;;;;;;;;;5057265;28;20467;-80
2020/12/24 01:37:18;;;;;;;21.43;19.93;;;;;;;;;;5057142;28;20454;-81
2020/12/24 01:39:45;;;;;;;21.10;19.57;;;;;;;;;;5039498;28;20420;-79
2020/12/24 01:42:12;;;;;;;22.40;20.53;;;;;;;;;;5057456;28;20417;-81
2020/12/24 01:44:39;;;;;;;20.90;19.50;;;;;;;;;;5057035;28;20423;-80
2020/12/24 01:47:05;;;;;;;22.07;20.43;;;;;;;;;;5056504;28;20819;-80
2020/12/24 01:49:32;;;;;;;21.03;19.37;;;;;;;;;;5038998;28;20969;-79
2020/12/24 01:52:00;;;;;;;20.83;19.33;;;;;;;;;;5056741;28;20486;-80
2020/12/24 01:54:27;;;;;;;22.07;20.30;;;;;;;;;;5056887;28;20750;-80
2020/12/24 01:56:54;;;;;;;21.80;19.73;;;;;;;;;;5056417;28;20445;-80
2020/12/24 01:59:21;;;;;;;22.13;20.40;;;;;;;;;;5056798;28;20440;-79
2020/12/24 02:01:49;;;;;;;21.07;19.53;;;;;;;;;;5056782;28;20433;-80
2020/12/24 02:04:16;;;;;;;21.67;20.03;;;;;;;;;;5038788;28;20491;-80
2020/12/24 02:06:44;;;;;;;21.10;19.70;;;;;;;;;;5056457;28;20417;-80
2020/12/24 02:09:12;;;;;;;20.30;19.00;;;;;;;;;;5056536;28;20432;-80
2020/12/24 02:11:40;;;;;;;20.77;19.47;;;;;;;;;;5056143;28;20853;-79
2020/12/24 02:14:07;;;;;;;21.60;20.08;;;;;;;;;;5038902;28;20420;-80
2020/12/24 02:16:34;;;;;;;21.55;20.05;;;;;;;;;;5055889;28;20235;-80
2020/12/24 02:19:01;;;;;;;22.45;20.33;;;;;;;;;;5056075;28;20203;-80
2020/12/24 02:21:29;;;;;;;21.55;19.85;;;;;;;;;;5056184;28;20199;-80
2020/12/24 02:23:56;;;;;;;21.02;19.30;;;;;;;;;;5056508;28;20189;-80
2020/12/24 02:26:23;;;;;;;23.87;21.70;;;;;;;;;;5056505;28;20203;-80
2020/12/24 02:28:50;;;;;;;21.27;19.70;;;;;;;;;;5038554;28;20413;-79
2020/12/24 02:31:17;;;;;;;22.30;20.50;;;;;;;;;;5038388;28;20416;-80
2020/12/24 02:33:44;;;;;;;23.33;20.73;;;;;;;;;;5055767;28;20649;-80
2020/12/24 02:36:11;;;;;;;21.33;19.83;;;;;;;;;;5055400;28;20847;-80
2020/12/24 02:38:38;;;;;;;21.47;19.97;;;;;;;;;;5056095;28;20427;-79
2020/12/24 02:41:05;;;;;;;22.60;20.43;;;;;;;;;;5055833;28;20413;-80
2020/12/24 02:43:32;;;;;;;21.67;19.93;;;;;;;;;;5056011;28;20858;-80
2020/12/24 02:45:59;;;;;;;21.50;19.70;;;;;;;;;;5056210;28;20412;-80
2020/12/24 02:48:28;;;;;;;22.20;20.50;;;;;;;;;;5056018;28;20445;-80
2020/12/24 02:50:55;;;;;;;20.53;19.33;;;;;;;;;;5055350;28;20414;-80
2020/12/24 02:53:22;;;;;;;20.93;19.43;;;;;;;;;;5037753;28;20451;-81
2020/12/24 02:55:50;;;;;;;21.63;19.93;;;;;;;;;;5055588;28;20979;-79
2020/12/24 02:58:17;;;;;;;22.00;20.40;;;;;;;;;;5055580;28;20412;-79
2020/12/24 03:00:43;;;;;;;23.17;21.27;;;;;;;;;;5055210;28;20805;-80
2020/12/24 03:03:11;;;;;;;21.98;20.30;;;;;;;;;;5037542;28;20242;-80
2020/12/24 03:05:38;;;;;;;22.57;20.77;;;;;;;;;;5038033;28;20196;-79
2020/12/24 03:08:05;;;;;;;22.15;20.08;;;;;;;;;;5055241;28;20902;-80
2020/12/24 03:10:32;;;;;;;21.50;19.95;;;;;;;;;;5055105;28;20232;-80
2020/12/24 03:13:00;;;;;;;21.52;20.02;;;;;;;;;;5055359;28;20229;-80
2020/12/24 03:15:27;;;;;;;22.10;20.40;;;;;;;;;;5054500;28;20241;-80
2020/12/24 03:17:53;;;;;;;20.80;19.33;;;;;;;;;;5055377;28;20202;-80
2020/12/24 03:20:20;;;;;;;22.07;20.53;;;;;;;;;;5055070;28;20199;-80
2020/12/24 03:22:47;;;;;;;22.57;20.90;;;;;;;;;;5055029;28;20946;-79
2020/12/24 03:25:14;;;;;;;22.10;20.50;;;;;;;;;;5055009;28;20811;-80
2020/12/24 03:27:41;;;;;;;22.33;20.77;;;;;;;;;;5055047;28;20449;-79
2020/12/24 03:30:10;;;;;;;21.13;20.00;;;;;;;;;;5055009;28;20420;-80
2020/12/24 03:32:37;;;;;;;22.63;20.95;;;;;;;;;;5054858;28;20446;-79
2020/12/24 03:35:04;;;;;;;21.40;20.00;;;;;;;;;;5054704;28;20222;-79
2020/12/24 03:37:31;;;;;;;22.83;20.93;;;;;;;;;;5054995;28;20441;-80
2020/12/24 03:39:58;;;;;;;22.17;20.23;;;;;;;;;;5054707;28;20442;-80
2020/12/24 03:42:25;;;;;;;22.40;20.63;;;;;;;;;;5054736;28;20637;-79
2020/12/24 03:44:52;;;;;;;22.25;20.75;;;;;;;;;;5054902;28;20453;-79
2020/12/24 03:47:20;;;;;;;21.75;20.05;;;;;;;;;;5054887;28;20187;-80
2020/12/24 03:49:47;;;;;;;21.77;19.92;;;;;;;;;;5054309;28;20188;-79
2020/12/24 03:52:13;;;;;;;22.50;20.40;;;;;;;;;;5054549;28;20202;-80
2020/12/24 03:54:40;;;;;;;26.13;23.53;;;;;;;;;;5054642;28;20431;-80
2020/12/24 03:57:07;;;;;;;21.77;20.17;;;;;;;;;;5054667;28;20530;-80
2020/12/24 03:59:34;;;;;;;23.35;21.00;;;;;;;;;;5053989;28;20473;-79
2020/12/24 04:02:01;;;;;;;23.33;21.40;;;;;;;;;;5054154;28;20551;-79
2020/12/24 04:04:29;;;;;;;22.10;20.58;;;;;;;;;;5036322;28;20523;-80
2020/12/24 04:06:56;;;;;;;22.67;20.85;;;;;;;;;;5054226;28;20191;-79
2020/12/24 04:09:23;;;;;;;23.03;21.03;;;;;;;;;;5054022;28;20741;-79
2020/12/24 04:11:50;;;;;;;21.10;19.60;;;;;;;;;;5054190;28;20480;-79
2020/12/24 04:14:17;;;;;;;22.53;21.00;;;;;;;;;;5036331;28;20972;-80
2020/12/24 04:16:44;;;;;;;24.10;20.97;;;;;;;;;;5054187;28;20488;-79
2020/12/24 04:19:11;;;;;;;22.90;21.10;;;;;;;;;;5054118;28;20845;-79
2020/12/24 04:21:39;;;;;;;22.75;20.83;;;;;;;;;;5036712;28;20441;-80
2020/12/24 04:24:06;;;;;;;21.93;20.50;;;;;;;;;;5054198;28;20191;-80
2020/12/24 04:26:33;;;;;;;22.07;20.47;;;;;;;;;;5054052;28;20435;-80
2020/12/24 04:29:00;;;;;;;22.92;21.17;;;;;;;;;;5053808;28;20985;-79
2020/12/24 04:31:26;;;;;;;22.60;20.63;;;;;;;;;;5054043;28;20227;-80
2020/12/24 04:33:53;;;;;;;23.27;21.38;;;;;;;;;;5054062;28;20756;-80
2020/12/24 04:36:20;;;;;;;22.43;20.63;;;;;;;;;;5053873;28;20341;-80
2020/12/24 04:38:48;;;;;;;22.52;20.67;;;;;;;;;;5053686;28;20461;-81
2020/12/24 04:41:15;;;;;;;22.17;20.50;;;;;;;;;;5053318;28;20199;-80
2020/12/24 04:43:42;;;;;;;23.73;21.50;;;;;;;;;;5053843;28;20885;-80
2020/12/24 04:46:12;;;;;;;22.70;21.00;;;;;;;;;;5053953;28;20446;-80
2020/12/24 04:48:40;;;;;;;20.03;18.93;;;;;;;;;;5054102;28;20495;-80
2020/12/24 04:51:07;;;;;;;21.13;19.80;;;;;;;;;;5053573;28;20470;-80
2020/12/24 04:53:37;;;;;;;23.10;20.97;;;;;;;;;;5054353;28;20442;-80
2020/12/24 04:56:05;;;;;;;22.30;20.57;;;;;;;;;;5053780;28;20541;-81
2020/12/24 04:58:32;;;;;;;23.90;21.87;;;;;;;;;;5053576;28;20438;-80
2020/12/24 05:00:59;;;;;;;23.00;20.90;;;;;;;;;;5053411;28;20484;-79
2020/12/24 05:03:26;;;;;;;23.73;21.80;;;;;;;;;;5035704;28;20534;-80
2020/12/24 05:05:53;;;;;;;24.67;22.17;;;;;;;;;;5053455;28;20203;-80
2020/12/24 05:08:20;;;;;;;22.38;20.58;;;;;;;;;;5053714;28;20191;-80
2020/12/24 05:11:02;;;;;;;22.75;20.90;;;;;;;;;;5053755;28;20192;-80
2020/12/24 05:13:30;;;;;;;22.08;20.10;;;;;;;;;;5053412;28;20202;-80
2020/12/24 05:15:57;;;;;;;22.27;20.40;;;;;;;;;;5053509;28;20225;-80
2020/12/24 05:18:24;;;;;;;23.17;21.47;;;;;;;;;;5053810;28;20629;-80
2020/12/24 05:20:51;;;;;;;22.67;20.60;;;;;;;;;;5053367;28;20440;-80
2020/12/24 05:23:19;;;;;;;20.90;19.20;;;;;;;;;;5054536;28;20465;-80
2020/12/24 05:25:46;;;;;;;23.27;21.07;;;;;;;;;;5053573;28;20495;-80
2020/12/24 05:28:21;;;;;;;21.63;20.20;;;;;;;;;;5053564;28;20805;-80
2020/12/24 05:30:48;;;;;;;20.33;19.10;;;;;;;;;;5053600;28;20194;-80
2020/12/24 05:33:30;;;;;;;21.75;20.17;;;;;;;;;;5052832;28;20420;-80
2020/12/24 05:36:16;;;;;;;21.40;19.87;;;;;;;;;;5034034;28;20318;-80
2020/12/24 05:38:43;;;;;;;22.30;20.83;;;;;;;;;;5053018;28;20412;-80
2020/12/24 05:41:26;;;;;;;21.80;20.30;;;;;;;;;;5053341;28;20455;-80
2020/12/24 05:43:57;;;;;;;22.70;21.15;;;;;;;;;;5053159;28;20208;-80
2020/12/24 05:46:25;;;;;;;21.48;19.95;;;;;;;;;;5052949;28;20200;-80
2020/12/24 05:48:52;;;;;;;21.88;20.33;;;;;;;;;;5053866;28;20535;-80
2020/12/24 05:51:19;;;;;;;20.77;19.70;;;;;;;;;;5036015;28;20207;-80
2020/12/24 05:53:46;;;;;;;21.25;19.95;;;;;;;;;;5056552;28;20475;-80
2020/12/24 05:56:20;;;;;;;21.38;20.10;;;;;;;;;;5057020;28;20242;-80
2020/12/24 05:58:48;;;;;;;21.15;19.80;;;;;;;;;;5056556;28;20197;-80
2020/12/24 06:01:15;;;;;;;26.33;22.00;;;;;;;;;;5056383;28;20192;-80
2020/12/24 06:04:00;;;;;;;23.00;21.20;;;;;;;;;;5056523;28;20636;-80
2020/12/24 06:06:33;;;;;;;23.65;21.70;;;;;;;;;;5056892;28;20554;-80
2020/12/24 06:09:05;;;;;;;22.52;20.75;;;;;;;;;;5056704;28;20202;-80
2020/12/24 06:11:44;;;;;;;23.02;21.05;;;;;;;;;;5056527;28;20195;-80
2020/12/24 06:14:14;;;;;;;22.42;20.85;;;;;;;;;;5056539;28;20192;-80
2020/12/24 06:16:45;;;;;;;22.42;20.48;;;;;;;;;;5056511;28;20216;-80
2020/12/24 06:19:14;;;;;;;21.27;19.85;;;;;;;;;;5056104;28;20222;-79
2020/12/24 06:21:43;;;;;;;23.67;21.95;;;;;;;;;;5055785;28;20235;-80
2020/12/24 06:24:10;;;;;;;24.05;22.20;;;;;;;;;;5056596;28;20191;-81
2020/12/24 06:26:39;;;;;;;25.90;23.83;;;;;;;;;;5056163;28;20649;-81
2020/12/24 06:29:06;;;;;;;30.48;28.65;;;;;;;;;;5038172;28;20811;-81
2020/12/24 06:31:34;;;;;;;30.98;29.40;;;;;;;;;;5056059;28;20200;-80
2020/12/24 06:34:15;;;;;;;32.30;30.80;;;;;;;;;;5055908;28;20184;-80
2020/12/24 06:36:43;;;;;;;33.35;31.75;;;;;;;;;;5055954;28;20217;-80
2020/12/24 06:39:10;;;;;;;39.28;37.25;;;;;;;;;;5056322;28;20550;-81
2020/12/24 06:41:38;;;;;;;36.83;35.13;;;;;;;;;;5056074;28;20187;-81
2020/12/24 06:44:05;;;;;;;34.72;33.03;;;;;;;;;;5056019;28;20194;-80
2020/12/24 06:46:55;;;;;;;50.38;47.97;;;;;;;;;;5055918;28;20192;-81
2020/12/24 06:49:29;;;;;;;53.78;51.17;;;;;;;;;;5055503;28;20561;-80
2020/12/24 06:51:57;;;;;;;52.33;49.72;;;;;;;;;;5055825;28;20194;-80
2020/12/24 06:54:24;;;;;;;52.50;49.90;;;;;;;;;;5038045;28;20201;-80
2020/12/24 06:57:11;;;;;;;51.63;49.00;;;;;;;;;;5055446;28;20225;-81
2020/12/24 06:59:38;;;;;;;45.88;43.67;;;;;;;;;;5055252;28;20216;-80
2020/12/24 07:02:05;;;;;;;44.67;42.47;;;;;;;;;;5037856;28;20201;-80
2020/12/24 07:04:36;;;;;;;53.80;51.20;;;;;;;;;;5054287;28;20233;-80
2020/12/24 07:07:04;;;;;;;50.40;47.70;;;;;;;;;;5055248;28;20222;-79
2020/12/24 07:09:41;;;;;;;50.35;47.85;;;;;;;;;;5055003;28;20636;-81
2020/12/24 07:12:08;;;;;;;53.15;50.30;;;;;;;;;;5037460;28;20249;-80
2020/12/24 07:14:36;;;;;;;50.13;47.63;;;;;;;;;;5055349;28;20630;-79
2020/12/24 07:17:08;;;;;;;52.75;50.25;;;;;;;;;;5054097;28;20214;-81
2020/12/24 07:19:35;;;;;;;52.10;49.38;;;;;;;;;;5055200;28;20201;-80
2020/12/24 07:22:08;;;;;;;48.90;46.50;;;;;;;;;;5055208;28;20189;-80
2020/12/24 07:24:35;;;;;;;46.50;44.15;;;;;;;;;;5054628;28;20727;-80
2020/12/24 07:27:03;;;;;;;45.30;43.03;;;;;;;;;;5037189;28;20263;-80
2020/12/24 07:29:31;;;;;;;34.60;32.80;;;;;;;;;;5055025;28;20304;-80
2020/12/24 07:32:01;;;;;;;42.97;40.88;;;;;;;;;;5054837;28;20196;-80
2020/12/24 07:34:29;;;;;;;40.67;38.67;;;;;;;;;;5055064;28;20255;-80
2020/12/24 07:36:56;;;;;;;40.40;38.38;;;;;;;;;;5054900;28;20576;-80
2020/12/24 07:39:24;;;;;;;36.97;35.17;;;;;;;;;;5054835;28;20531;-81
2020/12/24 07:41:51;;;;;;;37.38;35.47;;;;;;;;;;5037376;28;20191;-80
2020/12/24 07:44:18;;;;;;;34.60;32.60;;;;;;;;;;5054513;28;20193;-80
2020/12/24 07:46:45;;;;;;;39.33;36.55;;;;;;;;;;5054812;28;20548;-80
2020/12/24 07:49:12;;;;;;;32.42;30.63;;;;;;;;;;5054409;28;20186;-81
2020/12/24 07:51:39;;;;;;;30.70;28.88;;;;;;;;;;5054455;28;20197;-84
2020/12/24 07:54:07;;;;;;;29.40;27.90;;;;;;;;;;5054596;28;20247;-81
2020/12/24 07:56:35;;;;;;;29.35;27.75;;;;;;;;;;5054677;28;20216;-81
2020/12/24 07:59:02;;;;;;;30.73;28.98;;;;;;;;;;5054114;28;20256;-80
2020/12/24 08:01:29;;;;;;;36.60;34.60;;;;;;;;;;5036842;28;20231;-81
2020/12/24 08:03:57;;;;;;;30.35;28.65;;;;;;;;;;5054066;28;20228;-81
2020/12/24 08:06:24;;;;;;;29.60;27.90;;;;;;;;;;5054027;28;20205;-84
2020/12/24 08:08:51;;;;;;;29.95;28.25;;;;;;;;;;5054710;28;20552;-83
2020/12/24 08:11:18;;;;;;;32.38;30.35;;;;;;;;;;5054520;28;20240;-83
2020/12/24 08:13:46;;;;;;;30.92;29.13;;;;;;;;;;5054642;28;20212;-83
2020/12/24 08:16:13;;;;;;;38.25;36.05;;;;;;;;;;5053470;28;20332;-81
2020/12/24 08:18:43;;;;;;;29.67;27.98;;;;;;;;;;5054384;28;20193;-81
2020/12/24 08:21:17;;;;;;;33.15;30.50;;;;;;;;;;5054029;28;20194;-81
2020/12/24 08:23:48;;;;;;;29.95;27.92;;;;;;;;;;5054263;28;20196;-82
2020/12/24 08:26:15;;;;;;;30.00;28.20;;;;;;;;;;5054578;28;20528;-84
2020/12/24 08:28:44;;;;;;;28.98;27.17;;;;;;;;;;5054114;28;20197;-81
2020/12/24 08:31:12;;;;;;;31.90;29.98;;;;;;;;;;5053976;28;20189;-80
2020/12/24 08:33:39;;;;;;;30.73;28.75;;;;;;;;;;5052954;28;20193;-79
2020/12/24 08:36:13;;;;;;;29.85;27.95;;;;;;;;;;5053415;28;20351;-82
2020/12/24 08:38:40;;;;;;;35.30;33.20;;;;;;;;;;5054718;28;20212;-80
2020/12/24 08:41:07;;;;;;;29.42;27.63;;;;;;;;;;5053522;28;20224;-86
2020/12/24 08:43:34;;;;;;;30.02;28.15;;;;;;;;;;5054204;28;20186;-81
2020/12/24 08:46:01;;;;;;;30.23;27.90;;;;;;;;;;5053870;28;20189;-81
2020/12/24 08:48:32;;;;;;;29.73;27.85;;;;;;;;;;5053456;28;20199;-79
2020/12/24 08:50:59;;;;;;;28.55;26.85;;;;;;;;;;5053846;28;20185;-81
2020/12/24 08:53:28;;;;;;;31.77;29.60;;;;;;;;;;5053697;28;20193;-81
2020/12/24 08:55:55;;;;;;;30.25;28.25;;;;;;;;;;5053440;28;20217;-80
2020/12/24 08:58:22;;;;;;;30.35;28.35;;;;;;;;;;5053788;28;20212;-81
2020/12/24 09:00:49;;;;;;;30.05;28.05;;;;;;;;;;5053825;28;20229;-82
2020/12/24 09:03:22;;;;;;;29.52;27.63;;;;;;;;;;5053339;28;20232;-80
2020/12/24 09:05:50;;;;;;;29.73;27.73;;;;;;;;;;5054025;28;20218;-81
2020/12/24 09:08:24;;;;;;;31.00;28.90;;;;;;;;;;5053543;28;20236;-83
2020/12/24 09:10:51;;;;;;;31.55;29.45;;;;;;;;;;5053284;28;20194;-76
2020/12/24 09:13:18;;;;;;;30.15;28.15;;;;;;;;;;5053405;28;20240;-76
2020/12/24 09:15:45;;;;;;;29.77;27.88;;;;;;;;;;5053197;28;20228;-76
2020/12/24 09:18:12;;;;;;;30.45;28.48;;;;;;;;;;5053190;28;20227;-76
2020/12/24 09:20:39;;;;;;;29.45;27.45;;;;;;;;;;5053448;28;20189;-76
2020/12/24 09:23:10;;;;;;;30.65;28.52;;;;;;;;;;5053400;28;20196;-76
2020/12/24 09:25:37;;;;;;;30.30;28.23;;;;;;;;;;5053422;28;20189;-76
2020/12/24 09:28:06;;;;;;;29.48;27.58;;;;;;;;;;5056880;28;20201;-76
2020/12/24 09:30:33;;;;;;;27.70;25.90;;;;;;;;;;5056839;28;20283;-76
2020/12/24 09:33:01;;;;;;;28.95;27.05;;;;;;;;;;5056951;28;20196;-76
2020/12/24 09:35:29;;;;;;;30.60;28.60;;;;;;;;;;5056739;28;20232;-76
2020/12/24 09:37:57;;;;;;;29.85;27.65;;;;;;;;;;5056823;28;20190;-76
2020/12/24 09:40:25;;;;;;;32.05;29.95;;;;;;;;;;5056833;28;20190;-77
2020/12/24 09:42:52;;;;;;;30.98;29.00;;;;;;;;;;5057152;28;20190;-77
2020/12/24 09:45:19;;;;;;;31.42;29.35;;;;;;;;;;5039417;28;20228;-76
2020/12/24 09:47:47;;;;;;;30.10;27.95;;;;;;;;;;5056385;28;20369;-78
2020/12/24 09:50:14;;;;;;;29.15;27.15;;;;;;;;;;5056355;28;20550;-79
2020/12/24 09:52:41;;;;;;;31.50;29.40;;;;;;;;;;5056609;28;20200;-79
2020/12/24 09:55:09;;;;;;;31.50;29.38;;;;;;;;;;5038290;28;20563;-79
2020/12/24 09:57:36;;;;;;;31.92;29.73;;;;;;;;;;5056568;28;20201;-79
2020/12/24 10:00:05;;;;;;;32.85;30.45;;;;;;;;;;5055923;28;20280;-79
2020/12/24 10:02:32;;;;;;;31.13;28.98;;;;;;;;;;5056293;28;20200;-79
2020/12/24 10:04:59;;;;;;;28.90;27.00;;;;;;;;;;5055986;28;20728;-79
2020/12/24 10:07:26;;;;;;;29.48;27.48;;;;;;;;;;5056361;28;20248;-79
2020/12/24 10:09:53;;;;;;;29.48;27.48;;;;;;;;;;5056438;28;20192;-78
2020/12/24 10:12:20;;;;;;;30.80;28.63;;;;;;;;;;5056074;28;20191;-78
2020/12/24 10:14:55;;;;;;;28.38;26.48;;;;;;;;;;5056372;28;20197;-89
2020/12/24 10:17:23;;;;;;;29.35;27.35;;;;;;;;;;5056345;28;20213;-77
2020/12/24 10:19:51;;;;;;;29.35;27.35;;;;;;;;;;5055693;28;20205;-78
2020/12/24 10:22:18;;;;;;;29.00;26.95;;;;;;;;;;5055965;28;20182;-78
2020/12/24 10:24:45;;;;;;;28.50;26.27;;;;;;;;;;5056019;28;20194;-77
2020/12/24 10:27:13;;;;;;;26.77;24.98;;;;;;;;;;5055928;28;20197;-78
2020/12/24 10:29:40;;;;;;;27.60;25.70;;;;;;;;;;5055780;28;20189;-78
2020/12/24 10:32:08;;;;;;;29.73;27.65;;;;;;;;;;5055868;28;20213;-78
2020/12/24 10:34:35;;;;;;;28.73;26.63;;;;;;;;;;5055609;28;20206;-78
2020/12/24 10:37:02;;;;;;;27.60;25.73;;;;;;;;;;5038420;28;20243;-82
2020/12/24 10:39:29;;;;;;;27.92;26.02;;;;;;;;;;5037826;28;20186;-77
2020/12/24 10:41:56;;;;;;;28.50;26.60;;;;;;;;;;5038375;28;20197;-82
2020/12/24 10:44:23;;;;;;;28.13;26.33;;;;;;;;;;5056008;28;20194;-81
2020/12/24 10:46:54;;;;;;;27.17;25.35;;;;;;;;;;5056267;28;20555;-82
2020/12/24 10:49:22;;;;;;;27.20;25.50;;;;;;;;;;5055592;28;20230;-82
2020/12/24 10:51:49;;;;;;;28.83;26.98;;;;;;;;;;5055745;28;20281;-81
2020/12/24 10:54:16;;;;;;;28.35;26.63;;;;;;;;;;5038168;28;20205;-80
2020/12/24 10:56:45;;;;;;;26.33;24.67;;;;;;;;;;5055656;28;20270;-80
2020/12/24 10:59:12;;;;;;;28.27;26.27;;;;;;;;;;5055648;28;20229;-80
2020/12/24 11:01:39;;;;;;;27.58;25.65;;;;;;;;;;5055323;28;20201;-81
2020/12/24 11:04:06;;;;;;;27.50;25.50;;;;;;;;;;5055151;28;20242;-80
2020/12/24 11:06:34;;;;;;;27.00;25.20;;;;;;;;;;5055434;28;20636;-80
2020/12/24 11:09:01;;;;;;;26.35;24.55;;;;;;;;;;5055434;28;20197;-80
2020/12/24 11:11:28;;;;;;;27.17;25.27;;;;;;;;;;5055569;28;20186;-81
2020/12/24 11:13:55;;;;;;;27.73;25.70;;;;;;;;;;5055637;28;20193;-82
2020/12/24 11:16:22;;;;;;;27.48;25.48;;;;;;;;;;5055377;28;20260;-81
2020/12/24 11:18:49;;;;;;;27.08;25.10;;;;;;;;;;5055257;28;20196;-82
2020/12/24 11:21:16;;;;;;;27.05;25.25;;;;;;;;;;5037660;28;20198;-82
2020/12/24 11:23:44;;;;;;;28.33;26.33;;;;;;;;;;5053984;28;20547;-81
2020/12/24 11:26:10;;;;;;;28.02;26.13;;;;;;;;;;5055251;28;20259;-81
2020/12/24 11:28:37;;;;;;;26.98;25.13;;;;;;;;;;5055585;28;20584;-82
2020/12/24 11:31:04;;;;;;;27.38;25.48;;;;;;;;;;5037409;28;20198;-82
2020/12/24 11:33:31;;;;;;;28.20;26.20;;;;;;;;;;5054960;28;20206;-82
2020/12/24 11:35:58;;;;;;;28.17;26.38;;;;;;;;;;5055264;28;20225;-81
2020/12/24 11:38:25;;;;;;;26.92;25.13;;;;;;;;;;5054923;28;20541;-82
2020/12/24 11:40:53;;;;;;;29.10;27.00;;;;;;;;;;5055247;28;20190;-82
2020/12/24 11:43:20;;;;;;;28.42;26.52;;;;;;;;;;5055280;28;20197;-82
2020/12/24 11:45:47;;;;;;;27.80;25.92;;;;;;;;;;5055035;28;20592;-81
2020/12/24 11:48:13;;;;;;;28.80;26.70;;;;;;;;;;5054904;28;20186;-81
2020/12/24 11:50:40;;;;;;;27.55;25.75;;;;;;;;;;5054647;28;20189;-81
2020/12/24 11:53:07;;;;;;;27.58;25.77;;;;;;;;;;5036407;28;20263;-81
2020/12/24 11:55:34;;;;;;;28.60;26.70;;;;;;;;;;5037078;28;20218;-80
2020/12/24 11:58:03;;;;;;;28.25;26.25;;;;;;;;;;5054353;28;20202;-79
2020/12/24 12:00:30;;;;;;;27.02;25.23;;;;;;;;;;5054031;28;20230;-80
2020/12/24 12:02:57;;;;;;;27.70;25.80;;;;;;;;;;5054137;28;20198;-80
2020/12/24 12:05:24;;;;;;;28.23;26.30;;;;;;;;;;5054253;28;20198;-80
2020/12/24 12:07:51;;;;;;;27.33;25.42;;;;;;;;;;5054418;28;20192;-80
2020/12/24 12:10:17;;;;;;;27.83;26.05;;;;;;;;;;5054194;28;20194;-80
2020/12/24 12:12:44;;;;;;;26.77;25.00;;;;;;;;;;5053902;28;20186;-80
2020/12/24 12:15:12;;;;;;;26.77;24.77;;;;;;;;;;5054183;28;20195;-80
2020/12/24 12:17:39;;;;;;;29.50;27.25;;;;;;;;;;5054332;28;20196;-80
2020/12/24 12:20:06;;;;;;;26.38;24.70;;;;;;;;;;5054246;28;20186;-80
2020/12/24 12:22:33;;;;;;;27.98;26.00;;;;;;;;;;5054831;28;20189;-81
2020/12/24 12:25:00;;;;;;;27.50;25.40;;;;;;;;;;5054969;28;20200;-85
2020/12/24 12:27:27;;;;;;;26.02;24.33;;;;;;;;;;5039908;28;20204;-90
2020/12/24 12:29:54;;;;;;;27.40;25.80;;;;;;;;;;5055510;28;20247;-90
2020/12/24 12:32:21;;;;;;;26.50;24.73;;;;;;;;;;5058694;28;20197;-91
2020/12/24 12:34:48;;;;;;;26.88;24.98;;;;;;;;;;5055129;28;20209;-87
2020/12/24 12:37:17;;;;;;;27.13;25.25;;;;;;;;;;5037420;28;20234;-87
2020/12/24 12:39:44;;;;;;;26.65;24.88;;;;;;;;;;5054723;28;20225;-83
2020/12/24 12:42:10;;;;;;;26.83;25.05;;;;;;;;;;5038369;28;20201;-85
2020/12/24 12:44:37;;;;;;;26.10;24.50;;;;;;;;;;5055544;28;20214;-89
2020/12/24 12:47:04;;;;;;;26.52;24.77;;;;;;;;;;5054662;28;20539;-89
2020/12/24 12:49:32;;;;;;;26.10;24.33;;;;;;;;;;5054638;28;20189;-89
2020/12/24 12:52:01;;;;;;;26.88;24.90;;;;;;;;;;5055628;28;20190;-89
2020/12/24 12:54:28;;;;;;;26.80;24.90;;;;;;;;;;5037766;28;20190;-89
2020/12/24 12:56:55;;;;;;;25.45;23.58;;;;;;;;;;5054240;28;20260;-88
2020/12/24 12:59:22;;;;;;;25.80;23.90;;;;;;;;;;5037336;28;20220;-89
2020/12/24 13:01:52;;;;;;;25.73;24.02;;;;;;;;;;5039429;28;20203;-88
2020/12/24 13:04:19;;;;;;;26.90;25.00;;;;;;;;;;5041297;28;20237;-89
2020/12/24 13:06:47;;;;;;;26.35;24.70;;;;;;;;;;5042118;28;20210;-89
2020/12/24 13:09:14;;;;;;;27.25;25.25;;;;;;;;;;5059108;28;20190;-90
2020/12/24 13:11:46;;;;;;;26.58;24.77;;;;;;;;;;5058975;28;20285;-90
2020/12/24 13:14:18;;;;;;;27.77;25.70;;;;;;;;;;5058352;28;20579;-90
2020/12/24 13:16:45;;;;;;;25.88;24.17;;;;;;;;;;5057807;28;20228;-90
2020/12/24 13:19:12;;;;;;;28.00;25.92;;;;;;;;;;5040332;28;20209;-89
2020/12/24 13:21:39;;;;;;;27.40;25.65;;;;;;;;;;5058278;28;20201;-90
2020/12/24 13:24:07;;;;;;;28.85;27.10;;;;;;;;;;5059089;28;20255;-90
2020/12/24 13:26:34;;;;;;;29.35;27.27;;;;;;;;;;5041070;28;20201;-90
2020/12/24 13:29:01;;;;;;;29.38;27.30;;;;;;;;;;5058375;28;20198;-91
2020/12/24 13:31:28;;;;;;;28.88;26.77;;;;;;;;;;5058811;28;20190;-91
2020/12/24 13:33:56;;;;;;;29.50;27.40;;;;;;;;;;5058849;28;20273;-91
2020/12/24 13:36:23;;;;;;;30.02;27.92;;;;;;;;;;5041922;28;20221;-91
2020/12/24 13:38:50;;;;;;;29.63;27.52;;;;;;;;;;5058455;28;20191;-91
2020/12/24 13:41:18;;;;;;;26.65;25.05;;;;;;;;;;5058317;28;20293;-87
2020/12/24 13:43:45;;;;;;;28.38;26.15;;;;;;;;;;5058112;28;20355;-89
2020/12/24 13:46:12;;;;;;;26.88;25.08;;;;;;;;;;5057730;28;20217;-90
2020/12/24 13:48:40;;;;;;;28.48;26.58;;;;;;;;;;5057540;28;20189;-89
2020/12/24 13:51:07;;;;;;;28.50;26.50;;;;;;;;;;5058685;28;20190;-89
2020/12/24 13:53:34;;;;;;;27.27;25.55;;;;;;;;;;5041088;28;20674;-89
2020/12/24 13:56:01;;;;;;;28.40;26.35;;;;;;;;;;5057559;28;20222;-90
2020/12/24 13:58:29;;;;;;;25.15;23.55;;;;;;;;;;5057592;28;20231;-88
2020/12/24 14:00:56;;;;;;;27.40;25.35;;;;;;;;;;5040001;28;20206;-89
2020/12/24 14:03:23;;;;;;;27.60;25.70;;;;;;;;;;5057309;28;20233;-89
2020/12/24 14:05:50;;;;;;;25.60;24.00;;;;;;;;;;5057335;28;20216;-88
2020/12/24 14:08:17;;;;;;;26.17;24.58;;;;;;;;;;5057103;28;20643;-89
2020/12/24 14:10:44;;;;;;;26.67;24.77;;;;;;;;;;5039995;28;20232;-89
2020/12/24 14:13:11;;;;;;;28.42;26.23;;;;;;;;;;5056515;28;20632;-89
2020/12/24 14:15:38;;;;;;;26.52;24.52;;;;;;;;;;5057386;28;20203;-89
2020/12/24 14:18:05;;;;;;;25.90;24.05;;;;;;;;;;5057413;28;20200;-88
2020/12/24 14:20:32;;;;;;;27.42;25.30;;;;;;;;;;5056768;28;20186;-89